Time;durP1;ratioP1;P1;durP2;ratioP2;P2;SDS_P1;SDS_P2;PMS_P1;PMS_P2;Temp;Humidity;BMP_temperature;BMP_pressure;BME280_temperature;BME280_humidity;BME280_pressure;Samples;Min_cycle;Max_cycle;Signal;HPM_P1;HPM_P2
2022/10/05 00:00:49;;;;;;;31.13;20.35;;;21.00;62.70;;;;;;4915958;29;20236;-74
2022/10/05 00:03:15;;;;;;;30.63;20.25;;;21.00;62.80;;;;;;4902274;29;20444;-74
2022/10/05 00:05:44;;;;;;;54.35;20.52;;;21.00;63.10;;;;;;4909411;29;20035;-74
2022/10/05 00:08:22;;;;;;;36.33;19.77;;;21.00;63.10;;;;;;4922538;29;20065;-74
2022/10/05 00:10:48;;;;;;;31.23;19.40;;;21.00;63.40;;;;;;4915813;29;20032;-74
2022/10/05 00:13:26;;;;;;;34.13;19.33;;;21.00;63.50;;;;;;4915708;29;20269;-74
2022/10/05 00:16:20;;;;;;;26.00;18.83;;;21.00;63.80;;;;;;4914696;29;20024;-74
2022/10/05 00:18:51;;;;;;;30.52;19.55;;;21.00;63.70;;;;;;4915444;29;20047;-75
2022/10/05 00:21:23;;;;;;;30.60;19.25;;;21.00;64.00;;;;;;4914267;29;20048;-74
2022/10/05 00:23:50;;;;;;;30.17;19.23;;;21.00;64.00;;;;;;4914286;29;20389;-74
2022/10/05 00:26:25;;;;;;;29.50;18.23;;;21.00;64.10;;;;;;4909982;29;20068;-74
2022/10/05 00:28:52;;;;;;;29.42;18.42;;;20.90;64.20;;;;;;4900979;29;20107;-74
2022/10/05 00:31:24;;;;;;;27.33;18.45;;;21.00;64.30;;;;;;4920820;29;20122;-75
2022/10/05 00:33:50;;;;;;;28.20;18.02;;;21.00;64.40;;;;;;4917289;29;20034;-74
2022/10/05 00:36:16;;;;;;;29.52;19.23;;;20.90;64.40;;;;;;4918647;29;20062;-74
2022/10/05 00:38:43;;;;;;;28.40;17.77;;;21.00;64.50;;;;;;4927005;29;20492;-74
2022/10/05 00:41:57;;;;;;;26.60;18.52;;;21.00;64.50;;;;;;4916411;29;20123;-74
2022/10/05 00:44:45;;;;;;;27.30;17.33;;;21.00;65.00;;;;;;4890128;29;20496;-74
2022/10/05 00:47:17;;;;;;;26.08;17.95;;;21.00;64.80;;;;;;4923764;29;20039;-73
2022/10/05 00:50:05;;;;;;;26.80;17.80;;;21.00;64.80;;;;;;4911145;29;20095;-73
2022/10/05 00:52:49;;;;;;;26.30;18.05;;;21.00;65.00;;;;;;4920950;29;20088;-74
2022/10/05 00:55:25;;;;;;;25.25;16.95;;;21.00;65.10;;;;;;4913075;29;20046;-74
2022/10/05 00:58:16;;;;;;;25.95;17.58;;;21.00;64.70;;;;;;4934735;28;20079;-75
2022/10/05 01:00:54;;;;;;;32.10;17.13;;;21.00;64.80;;;;;;4912958;29;20032;-74
2022/10/05 01:03:33;;;;;;;26.13;17.25;;;21.00;65.10;;;;;;4933631;29;20596;-74
2022/10/05 01:05:59;;;;;;;29.92;16.35;;;21.00;65.40;;;;;;4921229;29;20068;-74
2022/10/05 01:08:54;;;;;;;24.85;16.30;;;21.10;65.50;;;;;;4904770;29;20449;-74
2022/10/05 01:11:20;;;;;;;24.55;16.90;;;21.10;65.40;;;;;;4927256;29;20540;-74
2022/10/05 01:14:13;;;;;;;21.58;16.38;;;21.10;65.60;;;;;;4920875;29;20111;-74
2022/10/05 01:16:57;;;;;;;29.02;15.98;;;21.10;65.60;;;;;;4899865;29;20055;-74
2022/10/05 01:20:04;;;;;;;24.10;16.45;;;21.10;65.70;;;;;;4927637;29;20544;-74
2022/10/05 01:23:05;;;;;;;30.42;16.30;;;21.10;66.00;;;;;;4917318;29;20530;-74
2022/10/05 01:25:51;;;;;;;23.17;15.23;;;21.10;66.30;;;;;;4936476;29;20032;-74
2022/10/05 01:28:31;;;;;;;26.17;15.55;;;21.10;66.20;;;;;;4931351;29;20063;-74
2022/10/05 01:31:16;;;;;;;26.15;16.45;;;21.10;66.40;;;;;;4928569;29;20120;-74
2022/10/05 01:33:57;;;;;;;25.90;16.05;;;21.10;66.40;;;;;;4915835;29;20031;-73
2022/10/05 01:37:10;;;;;;;24.10;16.35;;;21.00;66.60;;;;;;4920764;29;20040;-74
2022/10/05 01:39:42;;;;;;;24.85;15.77;;;21.10;66.70;;;;;;4868171;29;20064;-74
2022/10/05 01:42:26;;;;;;;24.67;15.98;;;21.10;66.70;;;;;;4923642;29;20040;-74
2022/10/05 01:45:03;;;;;;;24.40;15.52;;;21.00;66.60;;;;;;4917146;29;20020;-74
2022/10/05 01:47:42;;;;;;;23.85;15.40;;;21.10;66.70;;;;;;4919250;29;20079;-74
2022/10/05 01:50:20;;;;;;;21.30;14.88;;;21.10;66.60;;;;;;4913967;29;20040;-74
2022/10/05 01:53:09;;;;;;;27.85;15.45;;;21.00;66.70;;;;;;4918249;29;20429;-74
2022/10/05 01:55:47;;;;;;;24.13;15.77;;;21.10;66.70;;;;;;4904130;29;20032;-74
2022/10/05 01:58:19;;;;;;;22.02;14.55;;;21.10;66.70;;;;;;4921925;29;20168;-74
2022/10/05 02:01:20;;;;;;;20.40;14.77;;;21.10;66.90;;;;;;4916339;29;20663;-74
2022/10/05 02:04:01;;;;;;;24.38;14.77;;;21.10;66.80;;;;;;4933938;29;20458;-74
2022/10/05 02:06:31;;;;;;;21.92;14.68;;;21.10;66.90;;;;;;4916312;29;20505;-74
2022/10/05 02:09:07;;;;;;;22.33;14.38;;;21.10;66.90;;;;;;4939414;28;20032;-74
2022/10/05 02:11:35;;;;;;;22.27;14.23;;;21.10;67.00;;;;;;4929518;29;20034;-74
2022/10/05 02:14:08;;;;;;;22.80;14.88;;;21.10;67.00;;;;;;4895954;29;20489;-73
2022/10/05 02:16:42;;;;;;;20.52;14.20;;;21.10;67.10;;;;;;4922991;29;20388;-74
2022/10/05 02:19:22;;;;;;;22.00;14.23;;;21.10;67.00;;;;;;4928267;29;20563;-74
2022/10/05 02:22:00;;;;;;;21.83;14.18;;;21.10;67.00;;;;;;4914180;29;20028;-74
2022/10/05 02:24:33;;;;;;;20.48;13.77;;;21.10;67.60;;;;;;4915624;29;20560;-74
2022/10/05 02:27:01;;;;;;;22.83;13.55;;;21.10;67.20;;;;;;4923791;29;20092;-74
2022/10/05 02:29:30;;;;;;;23.05;13.75;;;21.10;67.30;;;;;;4923292;29;20056;-74
2022/10/05 02:32:04;;;;;;;21.98;14.10;;;21.10;67.20;;;;;;4917317;29;20381;-74
2022/10/05 02:34:41;;;;;;;20.40;13.40;;;21.10;67.40;;;;;;4920029;29;20039;-74
2022/10/05 02:37:56;;;;;;;21.15;14.07;;;21.10;67.40;;;;;;4941450;29;20404;-74
2022/10/05 02:40:55;;;;;;;22.92;14.15;;;21.10;67.30;;;;;;4897153;29;20123;-74
2022/10/05 02:43:27;;;;;;;18.80;13.27;;;21.10;67.30;;;;;;4925856;29;20429;-74
2022/10/05 02:46:08;;;;;;;16.63;12.13;;;21.10;67.40;;;;;;4922459;29;20036;-74
2022/10/05 02:48:53;;;;;;;18.95;13.50;;;21.10;67.30;;;;;;4921964;29;20033;-74
2022/10/05 02:51:32;;;;;;;23.40;13.55;;;21.00;67.30;;;;;;4920837;29;20036;-74
2022/10/05 02:54:09;;;;;;;19.52;12.95;;;21.10;67.10;;;;;;4912412;29;20024;-74
2022/10/05 02:56:45;;;;;;;19.02;12.77;;;21.10;67.40;;;;;;4921232;29;20112;-74
2022/10/05 02:59:32;;;;;;;19.23;13.43;;;21.00;67.20;;;;;;4917023;29;20504;-74
2022/10/05 03:02:08;;;;;;;;;;;21.00;67.20;;;;;;4921503;29;20020;-74
2022/10/05 03:04:56;;;;;;;22.73;13.60;;;21.10;67.30;;;;;;4920891;29;19960;-74
2022/10/05 03:07:25;;;;;;;21.85;13.90;;;21.10;67.90;;;;;;4902977;29;20032;-74
2022/10/05 03:10:12;;;;;;;24.35;13.27;;;21.10;67.90;;;;;;4926659;29;20015;-74
2022/10/05 03:13:00;;;;;;;18.13;13.13;;;21.10;67.90;;;;;;4914445;29;20038;-74
2022/10/05 03:15:50;;;;;;;19.02;13.00;;;21.10;67.90;;;;;;4928474;29;20038;-73
2022/10/05 03:18:20;;;;;;;20.67;13.10;;;21.10;67.80;;;;;;4888953;29;20091;-74
2022/10/05 03:21:05;;;;;;;21.80;11.97;;;21.10;68.00;;;;;;4926433;29;20034;-74
2022/10/05 03:23:49;;;;;;;17.00;11.93;;;21.10;67.60;;;;;;4921583;29;20283;-74
2022/10/05 03:26:18;;;;;;;18.85;12.30;;;21.10;68.00;;;;;;4918027;29;20027;-74
2022/10/05 03:29:22;;;;;;;21.65;12.52;;;21.10;67.50;;;;;;4921825;29;20039;-74
2022/10/05 03:32:16;;;;;;;18.95;11.93;;;21.10;68.00;;;;;;4904672;29;20408;-74
2022/10/05 03:35:02;;;;;;;18.10;12.07;;;21.10;67.50;;;;;;4918555;29;20476;-74
2022/10/05 03:37:42;;;;;;;19.45;12.25;;;21.00;67.30;;;;;;4918706;29;20040;-74
2022/10/05 03:40:32;;;;;;;17.50;12.18;;;21.10;67.30;;;;;;4904734;29;20352;-74
2022/10/05 03:43:19;;;;;;;17.75;11.93;;;21.10;67.60;;;;;;4914467;29;20095;-74
2022/10/05 03:46:10;;;;;;;16.52;11.75;;;21.10;67.50;;;;;;4913042;29;20560;-74
2022/10/05 03:49:01;;;;;;;21.08;11.98;;;21.10;67.30;;;;;;4927572;29;20032;-73
2022/10/05 03:51:55;;;;;;;17.25;11.93;;;21.00;67.90;;;;;;4894059;29;20144;-74
2022/10/05 03:54:27;;;;;;;18.77;11.43;;;21.10;68.20;;;;;;4918900;29;20040;-74
2022/10/05 03:57:05;;;;;;;19.17;11.68;;;21.10;68.20;;;;;;4911921;29;20088;-74
2022/10/05 03:59:42;;;;;;;16.30;10.95;;;21.10;68.20;;;;;;4915794;29;20028;-74
2022/10/05 04:02:23;;;;;;;17.48;11.02;;;21.00;67.70;;;;;;4921193;29;20623;-74
2022/10/05 04:05:12;;;;;;;18.42;11.15;;;21.10;67.90;;;;;;4925082;29;20472;-74
2022/10/05 04:07:50;;;;;;;21.55;11.98;;;21.10;67.90;;;;;;4915107;29;20035;-74
2022/10/05 04:10:27;;;;;;;16.73;10.88;;;21.10;68.40;;;;;;4926743;29;20032;-74
2022/10/05 04:13:10;;;;;;;18.15;11.45;;;21.10;68.60;;;;;;4923462;29;20032;-74
2022/10/05 04:16:01;;;;;;;20.13;11.27;;;21.10;68.20;;;;;;4896183;29;20065;-74
2022/10/05 04:18:37;;;;;;;20.55;11.05;;;21.10;68.60;;;;;;4919423;23;20044;-74
2022/10/05 04:21:16;;;;;;;20.02;11.70;;;21.10;68.30;;;;;;4888003;29;20394;-74
2022/10/05 04:24:16;;;;;;;20.38;11.27;;;21.10;68.40;;;;;;4909270;29;20069;-74
2022/10/05 04:27:31;;;;;;;17.40;10.50;;;21.10;68.20;;;;;;4894097;29;20032;-74
2022/10/05 04:30:11;;;;;;;19.23;11.00;;;21.10;68.40;;;;;;4882307;29;20041;-74
2022/10/05 04:32:44;;;;;;;21.05;10.48;;;21.00;68.20;;;;;;4899465;29;20044;-75
2022/10/05 04:35:51;;;;;;;19.27;11.00;;;21.10;68.80;;;;;;4891191;29;20115;-74
2022/10/05 04:38:33;;;;;;;18.20;10.93;;;21.10;68.10;;;;;;4897123;29;20041;-74
2022/10/05 04:41:08;;;;;;;19.90;10.15;;;21.10;68.00;;;;;;4879109;29;20066;-74
2022/10/05 04:43:46;;;;;;;17.05;11.32;;;21.10;68.20;;;;;;4886902;29;20482;-73
2022/10/05 04:46:41;;;;;;;18.35;10.38;;;21.00;67.70;;;;;;4881459;29;20037;-75
2022/10/05 04:49:13;;;;;;;18.08;10.93;;;21.10;68.10;;;;;;4889234;29;20029;-73
2022/10/05 04:51:39;;;;;;;16.52;10.30;;;21.10;67.90;;;;;;4878447;29;20041;-74
2022/10/05 04:54:18;;;;;;;16.42;10.00;;;21.10;68.00;;;;;;4883721;29;20035;-74
2022/10/05 04:56:51;;;;;;;15.20;10.05;;;21.10;68.00;;;;;;4881480;29;20045;-74
2022/10/05 04:59:39;;;;;;;17.27;9.98;;;21.00;68.00;;;;;;4875699;29;20033;-74
2022/10/05 05:02:18;;;;;;;17.70;10.27;;;21.10;67.90;;;;;;4878641;29;20069;-74
2022/10/05 05:05:30;;;;;;;16.93;10.23;;;21.00;67.90;;;;;;4877764;29;20049;-74
2022/10/05 05:08:25;;;;;;;16.77;10.32;;;21.10;67.90;;;;;;4882830;29;20509;-74
2022/10/05 05:11:24;;;;;;;16.33;9.65;;;21.00;67.80;;;;;;4872635;29;20494;-75
2022/10/05 05:14:20;;;;;;;18.15;10.15;;;21.00;67.90;;;;;;4881311;29;20064;-74
2022/10/05 05:17:36;;;;;;;17.75;10.25;;;21.10;68.00;;;;;;4874405;29;20037;-75
2022/10/05 05:20:41;;;;;;;15.05;10.18;;;21.10;68.10;;;;;;4874103;29;20051;-73
2022/10/05 05:23:41;;;;;;;17.55;10.05;;;21.10;68.20;;;;;;4896111;29;20029;-75
2022/10/05 05:26:20;;;;;;;17.13;9.43;;;21.10;68.20;;;;;;4879208;29;20434;-75
2022/10/05 05:29:08;;;;;;;20.17;10.40;;;21.10;68.30;;;;;;4884063;29;20040;-74
2022/10/05 05:31:53;;;;;;;19.20;9.73;;;21.00;67.90;;;;;;4861857;29;20041;-75
2022/10/05 05:34:22;;;;;;;14.48;9.23;;;21.10;68.00;;;;;;4885930;29;20044;-75
2022/10/05 05:37:03;;;;;;;15.20;9.70;;;21.10;68.00;;;;;;4882219;29;20116;-74
2022/10/05 05:39:45;;;;;;;13.40;8.93;;;21.00;67.80;;;;;;4877360;29;20041;-75
2022/10/05 05:42:44;;;;;;;15.27;9.35;;;21.10;68.10;;;;;;4884736;29;20029;-74
2022/10/05 05:45:41;;;;;;;14.65;9.50;;;21.00;68.00;;;;;;4873066;29;20049;-75
2022/10/05 05:48:25;;;;;;;13.25;8.82;;;21.00;68.00;;;;;;4876689;29;20383;-73
2022/10/05 05:51:03;;;;;;;14.65;9.07;;;21.00;68.10;;;;;;4869286;29;20040;-74
2022/10/05 05:53:39;;;;;;;17.55;9.70;;;21.00;67.90;;;;;;4866808;29;20513;-74
2022/10/05 05:56:10;;;;;;;15.10;9.02;;;21.00;67.90;;;;;;4881703;29;20131;-74
2022/10/05 05:58:55;;;;;;;13.73;9.05;;;21.00;68.10;;;;;;4884179;29;20060;-74
2022/10/05 06:01:27;;;;;;;23.83;9.63;;;21.00;68.50;;;;;;4866090;29;20442;-74
2022/10/05 06:04:13;;;;;;;16.13;9.02;;;21.10;68.20;;;;;;4883422;29;20514;-73
2022/10/05 06:06:44;;;;;;;14.18;9.05;;;21.00;68.10;;;;;;4880286;29;20432;-74
2022/10/05 06:09:33;;;;;;;15.85;9.52;;;21.10;68.20;;;;;;4879412;29;20043;-74
2022/10/05 06:12:27;;;;;;;17.77;9.25;;;21.00;68.30;;;;;;4880936;29;20040;-74
2022/10/05 06:15:03;;;;;;;15.35;9.27;;;21.00;68.30;;;;;;4874852;29;20025;-74
2022/10/05 06:17:37;;;;;;;16.90;9.00;;;21.00;68.20;;;;;;4881833;29;20033;-74
2022/10/05 06:20:15;;;;;;;18.58;9.05;;;21.00;68.30;;;;;;4869755;29;20485;-74
2022/10/05 06:22:44;;;;;;;15.77;8.77;;;21.10;68.50;;;;;;4883055;29;20445;-74
2022/10/05 06:25:12;;;;;;;16.67;9.13;;;21.00;68.50;;;;;;4866007;29;20037;-74
2022/10/05 06:27:58;;;;;;;17.98;8.65;;;21.00;68.70;;;;;;4884541;29;20032;-73
2022/10/05 06:30:52;;;;;;;14.68;9.25;;;21.00;68.80;;;;;;4878096;29;20052;-75
2022/10/05 06:33:42;;;;;;;14.68;8.85;;;21.00;69.00;;;;;;4879598;29;20084;-74
2022/10/05 06:36:31;;;;;;;14.35;9.40;;;21.10;68.50;;;;;;4880690;29;20033;-74
2022/10/05 06:39:12;;;;;;;15.52;9.05;;;21.00;68.40;;;;;;4877619;29;20047;-74
2022/10/05 06:41:48;;;;;;;21.67;8.43;;;21.00;68.80;;;;;;4869771;29;20097;-75
2022/10/05 06:44:33;;;;;;;15.07;8.85;;;21.10;68.30;;;;;;4870693;29;21589;-74
2022/10/05 06:47:43;;;;;;;18.55;8.45;;;21.00;68.50;;;;;;4870531;29;20044;-74
2022/10/05 06:50:46;;;;;;;15.88;8.20;;;21.00;68.40;;;;;;4870414;29;20029;-74
2022/10/05 06:53:56;;;;;;;15.50;8.80;;;21.00;68.30;;;;;;4882686;29;20055;-74
2022/10/05 06:56:35;;;;;;;14.52;8.70;;;21.00;68.30;;;;;;4876997;29;20021;-73
2022/10/05 06:59:16;;;;;;;14.43;8.23;;;21.00;68.40;;;;;;4886893;29;20028;-74
2022/10/05 07:01:53;;;;;;;16.85;8.35;;;21.00;68.30;;;;;;4871468;29;20033;-74
2022/10/05 07:04:37;;;;;;;15.20;9.05;;;21.00;68.30;;;;;;4871785;29;20073;-75
2022/10/05 07:07:11;;;;;;;15.57;8.70;;;21.00;68.30;;;;;;4885532;29;20044;-73
2022/10/05 07:10:01;;;;;;;19.90;8.48;;;21.00;69.30;;;;;;4876254;29;20423;-73
2022/10/05 07:12:45;;;;;;;22.10;8.80;;;21.10;68.50;;;;;;4896228;29;20117;-72
2022/10/05 07:15:39;;;;;;;15.07;8.10;;;21.10;68.90;;;;;;4883168;29;20037;-73
2022/10/05 07:18:24;;;;;;;16.25;8.40;;;21.20;69.00;;;;;;4875728;29;20513;-73
2022/10/05 07:21:01;;;;;;;20.35;9.90;;;21.30;69.60;;;;;;4860094;29;20028;-73
2022/10/05 07:23:27;;;;;;;23.67;10.15;;;21.30;70.80;;;;;;4879311;29;20382;-73
2022/10/05 07:25:59;;;;;;;26.80;10.30;;;21.40;70.30;;;;;;4879957;29;20041;-73
2022/10/05 07:28:49;;;;;;;35.97;10.02;;;21.40;70.70;;;;;;4882798;29;20062;-74
2022/10/05 07:31:32;;;;;;;28.55;11.10;;;21.40;71.00;;;;;;4866868;29;20321;-72
2022/10/05 07:34:11;;;;;;;33.05;9.95;;;21.40;69.90;;;;;;4883991;29;20104;-72
2022/10/05 07:39:43;;;;;;;27.88;9.48;;;21.30;67.90;;;;;;4871955;29;20127;-80
2022/10/05 07:42:30;;;;;;;28.65;10.73;;;21.30;67.90;;;;;;4872106;29;20037;-89
2022/10/05 07:45:19;;;;;;;19.27;6.72;;;21.20;68.10;;;;;;4859563;29;20407;-85
2022/10/05 07:47:56;;;;;;;;;;;21.10;62.60;;;;;;4871481;29;20124;-84
2022/10/05 07:50:57;;;;;;;16.25;4.90;;;21.00;60.20;;;;;;4893164;29;19911;-83
2022/10/05 07:53:34;;;;;;;17.02;4.95;;;20.90;60.90;;;;;;4882436;29;20375;-81
2022/10/05 07:56:09;;;;;;;14.07;3.92;;;20.80;59.90;;;;;;4870792;29;20087;-80
2022/10/05 07:58:53;;;;;;;14.20;4.47;;;20.70;58.50;;;;;;4874923;29;20176;-79
2022/10/05 08:01:28;;;;;;;11.90;4.50;;;20.60;57.00;;;;;;4882888;29;20075;-82
2022/10/05 08:04:08;;;;;;;11.05;3.83;;;20.60;58.10;;;;;;4882200;29;20041;-81
2022/10/05 08:06:52;;;;;;;14.18;4.00;;;20.60;57.20;;;;;;4873073;29;20060;-80
2022/10/05 08:09:44;;;;;;;6.22;2.90;;;20.60;57.00;;;;;;4884134;29;20072;-72
2022/10/05 08:12:23;;;;;;;13.85;3.20;;;20.60;57.10;;;;;;4882417;29;20041;-75
2022/10/05 08:15:14;;;;;;;15.13;4.10;;;20.60;57.10;;;;;;4871296;29;20037;-74
2022/10/05 08:17:58;;;;;;;9.07;3.75;;;20.70;57.90;;;;;;4873341;29;20052;-74
2022/10/05 08:20:36;;;;;;;10.95;4.45;;;20.70;60.00;;;;;;4874265;29;20032;-74
2022/10/05 08:23:15;;;;;;;10.50;3.92;;;20.80;60.20;;;;;;4878933;29;20045;-74
2022/10/05 08:25:52;;;;;;;17.15;4.35;;;20.90;61.80;;;;;;4869945;29;20326;-74
2022/10/05 08:28:37;;;;;;;29.17;5.38;;;21.00;61.60;;;;;;4881905;29;20033;-73
2022/10/05 08:31:06;;;;;;;16.33;4.75;;;21.00;62.30;;;;;;4887506;29;20040;-74
2022/10/05 08:34:19;;;;;;;10.67;4.27;;;21.00;62.10;;;;;;4873410;29;20033;-74
2022/10/05 08:36:55;;;;;;;23.33;4.60;;;21.00;61.60;;;;;;4874605;29;20806;-74
2022/10/05 08:39:25;;;;;;;14.80;4.30;;;21.00;62.90;;;;;;4874117;29;20486;-74
2022/10/05 08:42:00;;;;;;;12.23;3.95;;;21.00;63.20;;;;;;4874729;29;20040;-74
2022/10/05 08:44:49;;;;;;;9.40;3.95;;;21.00;62.20;;;;;;4874258;29;20036;-74
2022/10/05 08:47:33;;;;;;;10.50;3.63;;;21.00;62.40;;;;;;4870492;29;20037;-74
2022/10/05 08:50:30;;;;;;;8.23;3.90;;;21.00;62.90;;;;;;4901029;29;20052;-74
2022/10/05 08:53:01;;;;;;;13.57;4.40;;;21.00;62.50;;;;;;4893173;29;20041;-74
2022/10/05 08:55:40;;;;;;;10.60;4.18;;;21.00;62.80;;;;;;4878374;29;20443;-74
2022/10/05 08:58:30;;;;;;;8.98;4.00;;;21.00;63.00;;;;;;4891301;29;20092;-74
2022/10/05 09:01:17;;;;;;;7.32;3.95;;;21.00;62.60;;;;;;4892743;29;20123;-74
2022/10/05 09:04:19;;;;;;;8.73;3.95;;;21.00;62.90;;;;;;4874732;29;20029;-74
2022/10/05 09:07:05;;;;;;;10.35;3.55;;;21.00;63.10;;;;;;4890473;29;20039;-74
2022/10/05 09:09:53;;;;;;;7.47;3.47;;;21.00;62.50;;;;;;4879623;29;20041;-74
2022/10/05 09:12:57;;;;;;;7.88;3.85;;;21.00;62.60;;;;;;4845681;29;20044;-74
2022/10/05 09:15:44;;;;;;;10.32;3.92;;;21.00;62.70;;;;;;4874745;29;20483;-74
2022/10/05 09:18:48;;;;;;;11.15;3.60;;;21.10;62.80;;;;;;4888523;29;20043;-74
2022/10/05 09:21:40;;;;;;;14.63;3.95;;;21.10;62.80;;;;;;4893815;29;20119;-74
2022/10/05 09:24:12;;;;;;;8.35;3.50;;;21.00;63.00;;;;;;4883377;29;20041;-74
2022/10/05 09:26:47;;;;;;;5.78;3.35;;;21.00;62.90;;;;;;4877217;29;20033;-74
2022/10/05 09:29:21;;;;;;;6.97;3.60;;;21.00;63.00;;;;;;4878010;29;20035;-74
2022/10/05 09:32:05;;;;;;;8.90;3.90;;;21.00;63.00;;;;;;4876167;29;20055;-74
2022/10/05 09:34:57;;;;;;;7.72;3.70;;;21.00;63.10;;;;;;4877469;29;20048;-74
2022/10/05 09:38:00;;;;;;;6.40;3.35;;;21.00;63.20;;;;;;4880677;29;20037;-74
2022/10/05 09:40:47;;;;;;;6.57;3.55;;;21.00;63.20;;;;;;4894147;29;20061;-74
2022/10/05 09:43:42;;;;;;;6.68;3.53;;;21.00;63.20;;;;;;4895707;29;20035;-74
2022/10/05 09:46:35;;;;;;;7.10;3.50;;;21.00;63.90;;;;;;4883940;29;20060;-74
2022/10/05 09:49:32;;;;;;;8.45;3.58;;;21.00;63.40;;;;;;4890010;29;20033;-74
2022/10/05 09:52:17;;;;;;;9.13;3.53;;;21.10;63.50;;;;;;4877039;29;20033;-74
2022/10/05 09:55:24;;;;;;;7.03;3.63;;;21.00;63.50;;;;;;4880932;29;20028;-74
2022/10/05 09:58:13;;;;;;;7.47;3.88;;;21.00;63.50;;;;;;4876275;29;20514;-74
2022/10/05 10:01:00;;;;;;;12.10;4.00;;;21.00;63.70;;;;;;4882483;29;20029;-73
2022/10/05 10:03:45;;;;;;;10.60;3.88;;;21.10;64.30;;;;;;4871400;29;20047;-73
2022/10/05 10:06:29;;;;;;;14.43;4.00;;;21.10;64.20;;;;;;4878396;29;20043;-73
2022/10/05 10:09:21;;;;;;;6.95;3.67;;;21.10;64.00;;;;;;4891485;29;20064;-73
2022/10/05 10:12:09;;;;;;;11.18;4.15;;;21.10;64.10;;;;;;4892811;29;20052;-73
2022/10/05 10:14:48;;;;;;;9.10;3.85;;;21.20;64.00;;;;;;4893996;29;20076;-74
2022/10/05 10:17:32;;;;;;;12.85;3.50;;;21.20;64.10;;;;;;4894260;29;20194;-73
2022/10/05 10:20:29;;;;;;;10.77;3.42;;;21.10;64.10;;;;;;4894260;29;20043;-73
2022/10/05 10:22:58;;;;;;;6.35;3.40;;;21.10;63.90;;;;;;4895877;29;20104;-73
2022/10/05 10:25:46;;;;;;;6.80;3.63;;;21.20;64.00;;;;;;4876741;29;20029;-74
2022/10/05 10:28:33;;;;;;;8.02;3.75;;;21.20;64.00;;;;;;4874791;29;20041;-73
2022/10/05 10:31:10;;;;;;;10.95;3.53;;;21.10;64.20;;;;;;4876748;29;20033;-74
2022/10/05 10:33:58;;;;;;;8.27;3.67;;;21.10;64.30;;;;;;4873761;29;20040;-74
2022/10/05 10:36:56;;;;;;;9.05;3.72;;;21.10;64.40;;;;;;4876136;29;20064;-73
2022/10/05 10:39:54;;;;;;;7.07;3.38;;;21.10;64.50;;;;;;4875902;29;20033;-73
2022/10/05 10:42:41;;;;;;;8.25;3.78;;;21.10;64.50;;;;;;4866524;29;20040;-74
2022/10/05 10:45:35;;;;;;;7.13;3.60;;;21.10;64.30;;;;;;4893407;29;20064;-74
2022/10/05 10:48:07;;;;;;;6.97;3.88;;;21.10;64.30;;;;;;4882714;29;20116;-73
2022/10/05 10:51:21;;;;;;;6.20;3.63;;;21.10;64.40;;;;;;4876160;29;20101;-74
2022/10/05 10:54:17;;;;;;;5.97;3.25;;;21.10;64.40;;;;;;4837675;29;20045;-73
2022/10/05 10:57:21;;;;;;;10.32;3.83;;;21.10;64.50;;;;;;4879877;29;20073;-80
2022/10/05 11:00:14;;;;;;;10.68;3.95;;;21.20;64.50;;;;;;4895730;23;20315;-76
2022/10/05 11:02:49;;;;;;;9.10;3.50;;;21.10;64.60;;;;;;4893871;29;20539;-76
2022/10/05 11:05:33;;;;;;;20.30;4.68;;;21.10;63.20;;;;;;4908067;29;20423;-76
2022/10/05 11:08:36;;;;;;;18.13;4.65;;;21.10;62.90;;;;;;4876988;29;20035;-77
2022/10/05 11:11:21;;;;;;;16.67;3.83;;;21.10;63.80;;;;;;4875462;29;20065;-76
2022/10/05 11:14:22;;;;;;;15.43;3.75;;;21.20;64.00;;;;;;4884208;29;20071;-76
2022/10/05 11:17:15;;;;;;;12.48;4.38;;;21.20;64.40;;;;;;4845798;29;20068;-76
2022/10/05 11:19:53;;;;;;;15.52;4.72;;;21.30;64.90;;;;;;4873061;29;20037;-76
2022/10/05 11:23:01;;;;;;;12.70;4.00;;;21.30;65.00;;;;;;4877778;29;20033;-76
2022/10/05 11:25:45;;;;;;;13.88;4.53;;;21.30;64.90;;;;;;4880980;29;20120;-74
2022/10/05 11:28:43;;;;;;;7.78;3.92;;;21.30;63.80;;;;;;4879102;29;20092;-74
2022/10/05 11:31:39;;;;;;;9.60;3.45;;;21.30;64.50;;;;;;4876868;29;20454;-75
2022/10/05 11:34:25;;;;;;;8.25;3.53;;;21.30;64.70;;;;;;4871659;29;20494;-76
2022/10/05 11:37:30;;;;;;;12.95;3.95;;;21.30;64.40;;;;;;4875880;29;20037;-75
2022/10/05 11:40:15;;;;;;;7.05;3.35;;;21.30;61.70;;;;;;4875135;29;20108;-74
2022/10/05 11:43:15;;;;;;;10.50;3.20;;;21.30;63.20;;;;;;4885056;29;20056;-76
2022/10/05 11:45:50;;;;;;;12.15;3.55;;;21.20;62.40;;;;;;4889611;29;20115;-75
2022/10/05 11:48:39;;;;;;;8.30;2.90;;;21.20;63.00;;;;;;4882482;29;20033;-76
2022/10/05 11:51:11;;;;;;;8.97;3.10;;;21.20;62.90;;;;;;4892356;29;20111;-71
2022/10/05 11:53:45;;;;;;;9.32;3.05;;;21.20;61.70;;;;;;4871246;29;20304;-71
2022/10/05 11:56:48;;;;;;;7.95;3.47;;;21.20;62.00;;;;;;4872122;29;20029;-71
2022/10/05 11:59:33;;;;;;;10.52;3.17;;;21.20;63.10;;;;;;4868769;29;20097;-71
2022/10/05 12:02:26;;;;;;;6.78;2.88;;;21.20;62.60;;;;;;4873829;29;20060;-71
2022/10/05 12:05:32;;;;;;;5.95;2.42;;;21.30;62.60;;;;;;4872913;29;20115;-70
2022/10/05 12:08:26;;;;;;;8.90;3.10;;;21.30;62.50;;;;;;4877337;29;20044;-72
2022/10/05 12:10:58;;;;;;;6.32;2.90;;;21.30;62.50;;;;;;4874741;29;20051;-73
2022/10/05 12:13:33;;;;;;;9.23;2.95;;;21.30;62.80;;;;;;4891078;29;20044;-73
2022/10/05 12:16:27;;;;;;;7.03;2.95;;;21.30;62.60;;;;;;4874558;29;20029;-73
2022/10/05 12:18:56;;;;;;;8.75;3.17;;;21.30;62.50;;;;;;4874964;29;20037;-73
2022/10/05 12:21:48;;;;;;;9.65;3.30;;;21.30;62.40;;;;;;4883779;29;20497;-74
2022/10/05 12:24:18;;;;;;;9.68;3.00;;;21.30;62.10;;;;;;4874433;29;20045;-74
2022/10/05 12:26:57;;;;;;;8.63;2.88;;;21.30;62.00;;;;;;4892120;29;20033;-73
2022/10/05 12:29:55;;;;;;;12.25;3.20;;;21.30;61.70;;;;;;4893131;29;20044;-75
2022/10/05 12:32:29;;;;;;;5.35;2.90;;;21.30;61.60;;;;;;4890254;29;20044;-73
2022/10/05 12:35:03;;;;;;;8.80;3.10;;;21.30;61.60;;;;;;4874782;29;20033;-74
2022/10/05 12:37:53;;;;;;;9.18;3.13;;;21.30;61.60;;;;;;4874708;29;20569;-73
2022/10/05 12:40:31;;;;;;;8.82;3.20;;;21.30;61.10;;;;;;4871872;29;20045;-74
2022/10/05 12:43:18;;;;;;;11.55;3.42;;;21.30;62.40;;;;;;4880476;29;20080;-74
2022/10/05 12:46:08;;;;;;;16.58;3.58;;;21.30;62.80;;;;;;4877178;29;20033;-73
2022/10/05 12:48:42;;;;;;;10.80;3.28;;;21.30;62.50;;;;;;4880467;29;20121;-72
2022/10/05 12:51:48;;;;;;;9.85;2.92;;;21.30;62.50;;;;;;4881183;29;20120;-73
2022/10/05 12:54:16;;;;;;;13.07;4.40;;;21.30;61.10;;;;;;4876546;29;20395;-71
2022/10/05 12:56:47;;;;;;;16.40;4.78;;;21.30;61.50;;;;;;4883477;29;20025;-71
2022/10/05 12:59:34;;;;;;;16.08;4.75;;;21.40;61.70;;;;;;4892684;29;20375;-71
2022/10/05 13:02:37;;;;;;;16.52;4.50;;;21.30;61.90;;;;;;4896791;29;20401;-71
2022/10/05 13:05:09;;;;;;;20.13;5.15;;;21.40;62.20;;;;;;4896897;29;20065;-71
2022/10/05 13:07:58;;;;;;;22.50;6.65;;;21.30;62.30;;;;;;4896657;29;20036;-71
2022/10/05 13:10:30;;;;;;;16.05;5.43;;;21.30;62.40;;;;;;4885346;29;20028;-71
2022/10/05 13:13:20;;;;;;;16.38;5.43;;;21.40;62.40;;;;;;4863044;29;20065;-71
2022/10/05 13:15:52;;;;;;;14.85;5.78;;;21.30;62.40;;;;;;4877208;29;20134;-71
2022/10/05 13:18:50;;;;;;;17.13;5.57;;;21.40;62.60;;;;;;4879571;29;20025;-71
2022/10/05 13:21:16;;;;;;;23.58;7.45;;;21.30;63.00;;;;;;4889726;29;20125;-71
2022/10/05 13:24:07;;;;;;;24.45;8.07;;;21.40;62.70;;;;;;4877426;29;20033;-71
2022/10/05 13:26:40;;;;;;;21.38;7.70;;;21.40;63.30;;;;;;4900219;29;20043;-72
2022/10/05 13:29:24;;;;;;;19.60;6.78;;;21.40;63.50;;;;;;4895862;29;20040;-71
2022/10/05 13:31:55;;;;;;;22.70;7.50;;;21.40;63.40;;;;;;4879337;29;20051;-72
2022/10/05 13:34:30;;;;;;;18.30;6.28;;;21.40;63.80;;;;;;4895781;29;20123;-72
2022/10/05 13:36:56;;;;;;;23.58;7.55;;;21.40;63.20;;;;;;4896160;29;20104;-72
2022/10/05 13:39:30;;;;;;;23.65;7.82;;;21.40;63.70;;;;;;4895363;29;20529;-72
2022/10/05 13:42:14;;;;;;;22.20;7.85;;;21.40;64.40;;;;;;4896210;29;20120;-72
2022/10/05 13:45:02;;;;;;;25.13;8.63;;;21.40;63.90;;;;;;4894455;29;20029;-71
2022/10/05 13:47:27;;;;;;;24.98;8.40;;;21.40;63.90;;;;;;4894592;29;20029;-71
2022/10/05 13:50:02;;;;;;;23.52;7.88;;;21.40;64.10;;;;;;4895973;29;20048;-71
2022/10/05 13:52:32;;;;;;;25.75;9.10;;;21.40;64.20;;;;;;4883162;29;20033;-71
2022/10/05 13:55:17;;;;;;;21.70;8.00;;;21.40;64.20;;;;;;4889488;29;20041;-71
2022/10/05 13:58:04;;;;;;;21.35;8.73;;;21.40;64.20;;;;;;4875556;29;20055;-72
2022/10/05 14:00:39;;;;;;;23.00;8.05;;;21.40;64.20;;;;;;4877167;29;20037;-72
2022/10/05 14:03:26;;;;;;;19.63;7.85;;;21.40;64.20;;;;;;4876774;29;20125;-71